createdAt,value
2019-02-10T00:01:55.449Z,99.90
2019-02-10T00:04:25.158Z,99.90
2019-02-10T00:06:54.603Z,99.90
2019-02-10T00:09:24.022Z,99.90
2019-02-10T00:11:53.138Z,99.90
2019-02-10T00:14:22.844Z,99.90
2019-02-10T00:16:52.903Z,99.90
2019-02-10T00:19:22.408Z,99.90
2019-02-10T00:21:51.795Z,99.90
2019-02-10T00:24:21.239Z,99.90
2019-02-10T00:26:50.633Z,99.90
2019-02-10T00:29:20.328Z,99.90
2019-02-10T00:31:50.063Z,99.90
2019-02-10T00:34:19.487Z,99.90
2019-02-10T00:36:48.951Z,99.90
2019-02-10T00:39:18.104Z,99.90
2019-02-10T00:41:47.766Z,99.90
2019-02-10T00:44:17.244Z,99.90
2019-02-10T00:46:46.624Z,99.90
2019-02-10T00:49:15.781Z,99.90
2019-02-10T00:51:45.703Z,99.90
2019-02-10T00:54:15.139Z,99.90
2019-02-10T00:56:44.258Z,99.90
2019-02-10T00:59:13.672Z,99.90
2019-02-10T01:01:42.863Z,99.90
2019-02-10T01:04:12.015Z,99.90
2019-02-10T01:06:41.859Z,99.90
2019-02-10T01:09:11.292Z,99.90
2019-02-10T01:11:40.417Z,99.90
2019-02-10T01:14:09.940Z,99.90
2019-02-10T01:16:39.331Z,99.90
2019-02-10T01:19:10.001Z,99.90
2019-02-10T01:21:41.281Z,99.90
2019-02-10T01:24:10.466Z,99.90
2019-02-10T01:26:39.579Z,99.90
2019-02-10T01:29:09.036Z,99.90
2019-02-10T01:31:38.494Z,99.90
2019-02-10T01:34:07.654Z,99.90
2019-02-10T01:36:37.071Z,99.90
2019-02-10T01:39:14.675Z,99.90
2019-02-10T01:41:44.063Z,99.90
2019-02-10T01:44:13.802Z,99.90
2019-02-10T01:46:43.199Z,99.90
2019-02-10T01:49:12.615Z,99.90
2019-02-10T01:51:42.977Z,99.90
2019-02-10T01:54:12.432Z,99.90
2019-02-10T01:56:42.156Z,99.90
2019-02-10T01:59:11.554Z,99.90
2019-02-10T02:01:40.790Z,99.90
2019-02-10T02:04:10.455Z,99.90
2019-02-10T02:06:39.686Z,99.90
2019-02-10T02:09:12.340Z,99.90
2019-02-10T02:11:41.600Z,99.90
2019-02-10T02:14:10.807Z,99.90
2019-02-10T02:16:40.327Z,99.90
2019-02-10T02:19:09.995Z,99.90
2019-02-10T02:21:39.479Z,99.90
2019-02-10T02:24:08.630Z,99.90
2019-02-10T02:26:37.788Z,99.90
2019-02-10T02:29:07.186Z,99.90
2019-02-10T02:31:36.747Z,99.90
2019-02-10T02:34:05.868Z,99.90
2019-02-10T02:36:42.358Z,99.90
2019-02-10T02:39:11.692Z,99.90
2019-02-10T02:41:41.391Z,99.90
2019-02-10T02:44:10.791Z,99.90
2019-02-10T02:46:39.951Z,99.90
2019-02-10T02:49:09.885Z,99.90
2019-02-10T02:51:39.383Z,99.90
2019-02-10T02:54:08.804Z,99.90
2019-02-10T02:56:38.242Z,99.90
2019-02-10T02:59:08.246Z,99.90
2019-02-10T03:01:37.824Z,99.90
2019-02-10T03:04:07.285Z,99.90
2019-02-10T03:06:46.125Z,99.90
2019-02-10T03:09:15.967Z,99.90
2019-02-10T03:11:45.150Z,99.90
2019-02-10T03:14:14.319Z,99.90
2019-02-10T03:16:44.008Z,99.90
2019-02-10T03:19:13.680Z,99.90
2019-02-10T03:21:43.185Z,99.90
2019-02-10T03:24:12.312Z,99.90
2019-02-10T03:26:42.034Z,99.90
2019-02-10T03:29:11.220Z,99.90
2019-02-10T03:31:40.657Z,99.90
2019-02-10T03:34:10.157Z,99.90
2019-02-10T03:36:39.876Z,99.90
2019-02-10T03:39:09.274Z,99.90
2019-02-10T03:41:38.792Z,99.90
2019-02-10T03:44:07.916Z,99.90
2019-02-10T03:46:37.351Z,99.90
2019-02-10T03:49:07.130Z,99.90
2019-02-10T03:51:36.299Z,99.90
2019-02-10T03:54:05.960Z,99.90
2019-02-10T03:56:35.183Z,99.90
2019-02-10T03:59:04.318Z,99.90
2019-02-10T04:01:33.589Z,99.90
2019-02-10T04:04:03.000Z,99.90
2019-02-10T04:06:32.501Z,99.90
2019-02-10T04:09:01.974Z,99.90
2019-02-10T04:11:31.212Z,99.90
2019-02-10T04:14:00.880Z,99.90
2019-02-10T04:16:30.498Z,99.90
2019-02-10T04:18:59.896Z,99.90
2019-02-10T04:21:29.064Z,99.90
2019-02-10T04:23:58.605Z,99.90
2019-02-10T04:26:27.781Z,99.90
2019-02-10T04:28:57.059Z,99.90
2019-02-10T04:31:26.766Z,99.90
2019-02-10T04:33:55.967Z,99.90
2019-02-10T04:36:25.391Z,99.90
2019-02-10T04:38:55.084Z,99.90
2019-02-10T04:41:24.291Z,99.90
2019-02-10T04:43:53.699Z,99.90
2019-02-10T04:46:23.186Z,99.90
2019-02-10T04:48:52.367Z,99.90
2019-02-10T04:51:21.802Z,99.90
2019-02-10T04:53:51.490Z,99.90
2019-02-10T04:56:20.743Z,99.90
2019-02-10T04:58:49.959Z,99.90
2019-02-10T05:01:19.224Z,99.90
2019-02-10T05:03:48.700Z,99.90
2019-02-10T05:06:18.190Z,99.90
2019-02-10T05:08:47.852Z,99.90
2019-02-10T05:11:17.282Z,99.90
2019-02-10T05:13:46.405Z,99.90
2019-02-10T05:16:15.531Z,99.90
2019-02-10T05:18:44.968Z,99.90
2019-02-10T05:21:14.445Z,99.90
2019-02-10T05:23:44.216Z,99.90
2019-02-10T05:26:13.640Z,99.90
2019-02-10T05:28:43.140Z,99.90
2019-02-10T05:31:12.540Z,99.90
2019-02-10T05:33:41.699Z,99.90
2019-02-10T05:36:10.834Z,99.90
2019-02-10T05:38:40.605Z,99.90
2019-02-10T05:41:10.407Z,99.90
2019-02-10T05:43:39.573Z,99.90
2019-02-10T05:46:09.220Z,99.90
2019-02-10T05:48:38.719Z,99.90
2019-02-10T05:51:07.844Z,99.90
2019-02-10T05:53:37.014Z,99.90
2019-02-10T05:56:06.720Z,99.90
2019-02-10T05:58:36.428Z,99.90
2019-02-10T06:01:41.391Z,99.90
2019-02-10T06:04:10.701Z,99.90
2019-02-10T06:06:40.204Z,99.90
2019-02-10T06:09:10.054Z,99.90
2019-02-10T06:11:39.527Z,99.90
2019-02-10T06:14:08.697Z,99.90
2019-02-10T06:16:38.159Z,99.90
2019-02-10T06:19:07.336Z,99.90
2019-02-10T06:21:36.480Z,99.90
2019-02-10T06:24:05.940Z,99.90
2019-02-10T06:26:35.655Z,99.90
2019-02-10T06:29:04.824Z,99.90
2019-02-10T06:31:34.591Z,99.90
2019-02-10T06:34:04.370Z,99.90
2019-02-10T06:36:34.141Z,99.90
2019-02-10T06:39:05.316Z,99.90
2019-02-10T06:41:34.733Z,99.90
2019-02-10T06:44:04.220Z,99.90
2019-02-10T06:46:33.975Z,99.90
2019-02-10T06:49:04.328Z,99.90
2019-02-10T06:51:33.601Z,99.90
2019-02-10T06:54:03.144Z,99.90
2019-02-10T06:56:32.578Z,99.90
2019-02-10T06:59:02.659Z,99.90
2019-02-10T07:01:35.779Z,99.90
2019-02-10T07:04:29.087Z,99.90
2019-02-10T07:06:58.292Z,99.90
2019-02-10T07:09:27.471Z,99.90
2019-02-10T07:11:56.913Z,99.90
2019-02-10T07:14:29.444Z,99.90
2019-02-10T07:17:20.632Z,99.90
2019-02-10T07:20:39.719Z,99.90
2019-02-10T07:23:34.569Z,99.90
2019-02-10T07:26:21.911Z,99.90
2019-02-10T07:29:15.036Z,99.90
2019-02-10T07:31:58.888Z,99.90
2019-02-10T07:35:02.311Z,99.90
2019-02-10T07:37:48.091Z,99.90
2019-02-10T07:40:55.499Z,99.90
2019-02-10T07:43:50.272Z,99.90
2019-02-10T07:46:38.497Z,99.90
2019-02-10T07:49:38.866Z,99.90
2019-02-10T07:52:34.660Z,99.90
2019-02-10T07:55:15.756Z,99.90
2019-02-10T07:58:34.259Z,99.90
2019-02-10T08:01:39.856Z,99.90
2019-02-10T08:04:48.888Z,99.90
2019-02-10T08:07:54.224Z,99.90
2019-02-10T08:10:46.070Z,99.90
2019-02-10T08:14:02.554Z,99.90
2019-02-10T08:16:58.113Z,99.90
2019-02-10T08:19:43.563Z,99.90
2019-02-10T08:22:44.828Z,99.90
2019-02-10T08:25:45.804Z,99.90
2019-02-10T08:28:41.635Z,99.90
2019-02-10T08:31:35.256Z,99.90
2019-02-10T08:34:23.740Z,99.90
2019-02-10T08:37:20.693Z,99.90
2019-02-10T08:40:37.442Z,99.90
2019-02-10T08:43:50.786Z,99.90
2019-02-10T08:46:48.141Z,99.90
2019-02-10T08:49:44.653Z,99.90
2019-02-10T08:52:52.119Z,99.90
2019-02-10T08:55:21.980Z,99.90
2019-02-10T08:57:51.503Z,99.90
2019-02-10T09:00:20.759Z,99.90
2019-02-10T09:02:50.016Z,99.90
2019-02-10T09:05:19.476Z,99.90
2019-02-10T09:07:48.991Z,99.90
2019-02-10T09:10:18.397Z,99.90
2019-02-10T09:12:47.828Z,99.90
2019-02-10T09:15:17.675Z,99.90
2019-02-10T09:17:47.255Z,99.90
2019-02-10T09:20:16.760Z,99.90
2019-02-10T09:22:46.051Z,99.90
2019-02-10T09:25:15.944Z,99.90
2019-02-10T09:27:45.384Z,99.90
2019-02-10T09:30:14.616Z,99.90
2019-02-10T09:32:43.803Z,99.90
2019-02-10T09:35:14.282Z,99.90
2019-02-10T09:37:45.136Z,99.90
2019-02-10T09:40:14.539Z,99.90
2019-02-10T09:42:44.566Z,99.90
2019-02-10T09:45:14.557Z,99.90
2019-02-10T09:47:43.781Z,99.90
2019-02-10T09:50:15.623Z,99.90
2019-02-10T09:52:45.505Z,99.90
2019-02-10T09:55:15.471Z,99.90
2019-02-10T09:57:44.966Z,99.90
2019-02-10T10:00:14.583Z,99.90
2019-02-10T10:02:44.087Z,99.90
2019-02-10T10:05:13.447Z,99.90
2019-02-10T10:07:42.959Z,99.90
2019-02-10T10:10:12.868Z,99.90
2019-02-10T10:12:42.425Z,99.90
2019-02-10T10:15:13.331Z,99.90
2019-02-10T10:17:42.555Z,99.90
2019-02-10T10:20:13.520Z,99.90
2019-02-10T10:22:42.840Z,99.90
2019-02-10T10:25:12.291Z,99.90
2019-02-10T10:27:42.086Z,99.90
2019-02-10T10:30:13.630Z,99.30
2019-02-10T10:32:43.470Z,98.90
2019-02-10T10:35:13.059Z,95.00
2019-02-10T10:37:43.324Z,93.60
2019-02-10T10:40:12.588Z,91.10
2019-02-10T10:42:41.913Z,88.30
2019-02-10T10:45:11.470Z,87.80
2019-02-10T10:47:41.585Z,86.20
2019-02-10T10:50:11.128Z,87.40
2019-02-10T10:52:40.723Z,88.80
2019-02-10T10:55:10.068Z,86.70
2019-02-10T10:57:39.608Z,82.10
2019-02-10T11:00:09.874Z,84.00
2019-02-10T11:02:39.127Z,83.30
2019-02-10T11:05:09.081Z,84.40
2019-02-10T11:07:38.803Z,82.80
2019-02-10T11:10:08.347Z,82.00
2019-02-10T11:12:37.833Z,80.20
2019-02-10T11:15:08.270Z,81.10
2019-02-10T11:17:37.934Z,81.60
2019-02-10T11:20:07.623Z,82.30
2019-02-10T11:22:37.032Z,82.30
2019-02-10T11:25:06.655Z,82.00
2019-02-10T11:27:36.096Z,80.70
2019-02-10T11:30:06.034Z,82.00
2019-02-10T11:32:35.174Z,81.30
2019-02-10T11:35:04.509Z,82.00
2019-02-10T11:37:34.303Z,79.50
2019-02-10T11:40:04.115Z,81.00
2019-02-10T11:42:33.851Z,80.20
2019-02-10T11:45:03.403Z,79.90
2019-02-10T11:47:33.083Z,79.50
2019-02-10T11:50:02.608Z,77.30
2019-02-10T11:52:31.746Z,77.30
2019-02-10T11:55:01.063Z,77.50
2019-02-10T11:57:30.194Z,78.00
2019-02-10T11:59:59.445Z,76.70
2019-02-10T12:02:28.849Z,76.20
2019-02-10T12:04:58.170Z,75.50
2019-02-10T12:07:27.572Z,76.20
2019-02-10T12:09:57.100Z,75.30
2019-02-10T12:12:26.770Z,74.80
2019-02-10T12:14:56.583Z,76.40
2019-02-10T12:17:25.980Z,76.60
2019-02-10T12:19:55.382Z,76.50
2019-02-10T12:22:24.835Z,75.80
2019-02-10T12:24:54.380Z,75.90
2019-02-10T12:27:23.594Z,75.80
2019-02-10T12:29:53.400Z,76.00
2019-02-10T12:32:22.808Z,76.20
2019-02-10T12:34:52.343Z,76.10
2019-02-10T12:37:21.476Z,76.30
2019-02-10T12:39:59.478Z,76.40
2019-02-10T12:42:23.234Z,79.30
2019-02-10T12:44:52.499Z,82.70
2019-02-10T12:47:21.703Z,84.20
2019-02-10T12:49:51.359Z,86.90
2019-02-10T12:52:20.518Z,90.10
2019-02-10T12:54:50.094Z,94.30
2019-02-10T12:57:19.336Z,99.30
2019-02-10T12:59:49.172Z,99.90
2019-02-10T13:02:19.238Z,99.90
2019-02-10T13:04:48.492Z,99.90
2019-02-10T13:07:18.192Z,99.90
2019-02-10T13:09:48.150Z,99.90
2019-02-10T13:12:17.728Z,99.90
2019-02-10T13:14:50.013Z,99.90
2019-02-10T13:17:19.443Z,99.90
2019-02-10T13:19:48.975Z,99.90
2019-02-10T13:22:18.516Z,99.90
2019-02-10T13:24:48.086Z,99.90
2019-02-10T13:27:17.479Z,99.90
2019-02-10T13:29:47.281Z,99.90
2019-02-10T13:32:17.103Z,99.90
2019-02-10T13:34:46.442Z,99.90
2019-02-10T13:37:15.936Z,99.90
2019-02-10T13:39:45.319Z,99.90
2019-02-10T13:42:14.976Z,99.90
2019-02-10T13:44:44.267Z,99.90
2019-02-10T13:47:13.401Z,99.90
2019-02-10T13:49:42.931Z,99.90
2019-02-10T13:52:12.336Z,99.90
2019-02-10T13:54:41.843Z,99.90
2019-02-10T13:57:11.317Z,99.90
2019-02-10T13:59:41.108Z,99.90
2019-02-10T14:02:11.810Z,99.90
2019-02-10T14:04:41.699Z,99.90
2019-02-10T14:07:11.402Z,99.90
2019-02-10T14:09:40.778Z,99.90
2019-02-10T14:12:10.053Z,99.90
2019-02-10T14:14:39.633Z,99.90
2019-02-10T14:17:08.773Z,99.90
2019-02-10T14:19:38.853Z,99.90
2019-02-10T14:22:08.035Z,99.90
2019-02-10T14:24:37.547Z,99.90
2019-02-10T14:27:06.688Z,99.90
2019-02-10T14:29:36.200Z,99.90
2019-02-10T14:32:05.587Z,99.90
2019-02-10T14:34:34.716Z,99.90
2019-02-10T14:37:04.217Z,99.90
2019-02-10T14:39:33.803Z,99.90
2019-02-10T14:42:03.051Z,99.90
2019-02-10T14:44:32.725Z,99.90
2019-02-10T14:47:02.317Z,99.90
2019-02-10T14:49:32.485Z,99.90
2019-02-10T14:52:01.735Z,99.90
2019-02-10T14:54:31.161Z,99.90
2019-02-10T14:57:00.794Z,99.90
2019-02-10T14:59:30.010Z,99.90
2019-02-10T15:01:59.895Z,99.90
2019-02-10T15:04:29.299Z,99.90
2019-02-10T15:06:58.638Z,99.90
2019-02-10T15:09:28.034Z,99.90
2019-02-10T15:11:57.355Z,99.90
2019-02-10T15:14:26.568Z,99.90
2019-02-10T15:16:56.818Z,99.90
2019-02-10T15:19:26.635Z,99.90
2019-02-10T15:21:55.899Z,99.90
2019-02-10T15:24:25.300Z,99.90
2019-02-10T15:26:54.744Z,99.90
2019-02-10T15:29:24.435Z,99.90
2019-02-10T15:31:53.760Z,99.90
2019-02-10T15:34:23.092Z,99.90
2019-02-10T15:36:52.350Z,99.90
2019-02-10T15:39:21.500Z,99.90
2019-02-10T15:41:51.060Z,99.90
2019-02-10T15:44:20.455Z,99.90
2019-02-10T15:46:50.004Z,99.90
2019-02-10T15:49:19.304Z,99.90
2019-02-10T15:51:48.908Z,99.90
2019-02-10T15:54:18.382Z,99.90
2019-02-10T15:56:47.915Z,99.90
2019-02-10T15:59:17.063Z,99.90
2019-02-10T16:01:46.944Z,99.90
2019-02-10T16:04:16.068Z,99.90
2019-02-10T16:06:45.335Z,99.90
2019-02-10T16:09:15.018Z,99.90
2019-02-10T16:11:44.933Z,99.90
2019-02-10T16:14:14.169Z,99.90
2019-02-10T16:16:43.803Z,99.90
2019-02-10T16:19:13.577Z,99.90
2019-02-10T16:21:43.791Z,99.90
2019-02-10T16:24:13.338Z,99.90
2019-02-10T16:26:43.131Z,99.90
2019-02-10T16:29:12.263Z,99.90
2019-02-10T16:31:41.776Z,99.90
2019-02-10T16:34:11.601Z,99.90
2019-02-10T16:36:41.722Z,99.90
2019-02-10T16:39:12.204Z,99.90
2019-02-10T16:41:41.719Z,99.90
2019-02-10T16:44:10.868Z,99.90
2019-02-10T16:46:40.465Z,99.90
2019-02-10T16:49:09.860Z,99.90
2019-02-10T16:51:39.451Z,99.90
2019-02-10T16:54:08.872Z,99.90
2019-02-10T16:56:38.723Z,99.90
2019-02-10T16:59:07.867Z,99.90
2019-02-10T17:01:37.476Z,99.90
2019-02-10T17:04:07.224Z,99.90
2019-02-10T17:06:37.036Z,99.90
2019-02-10T17:09:07.042Z,99.90
2019-02-10T17:11:36.319Z,99.90
2019-02-10T17:14:05.716Z,99.90
2019-02-10T17:16:35.546Z,99.90
2019-02-10T17:19:04.960Z,99.90
2019-02-10T17:21:34.227Z,99.90
2019-02-10T17:24:03.364Z,99.90
2019-02-10T17:26:32.928Z,99.90
2019-02-10T17:29:02.200Z,99.90
2019-02-10T17:31:31.456Z,99.90
2019-02-10T17:34:00.588Z,99.90
2019-02-10T17:36:29.924Z,99.90
2019-02-10T17:38:59.407Z,99.90
2019-02-10T17:41:35.783Z,99.90
2019-02-10T17:44:05.506Z,99.90
2019-02-10T17:46:34.775Z,99.90
2019-02-10T17:49:03.982Z,99.90
2019-02-10T17:51:33.783Z,99.90
2019-02-10T17:54:03.234Z,99.90
2019-02-10T17:56:32.787Z,99.90
2019-02-10T17:59:01.906Z,99.90
2019-02-10T18:01:31.776Z,99.90
2019-02-10T18:04:00.890Z,99.90
2019-02-10T18:06:30.143Z,99.90
2019-02-10T18:08:59.343Z,99.90
2019-02-10T18:11:31.071Z,99.90
2019-02-10T18:13:59.784Z,99.90
2019-02-10T18:16:42.291Z,99.90
2019-02-10T18:19:33.736Z,99.90
2019-02-10T18:22:10.471Z,99.90
2019-02-10T18:24:57.360Z,99.90
2019-02-10T18:27:44.873Z,99.90
2019-02-10T18:30:31.627Z,99.90
2019-02-10T18:33:08.720Z,99.90
2019-02-10T18:35:53.320Z,99.90
2019-02-10T18:38:44.400Z,99.90
2019-02-10T18:41:27.512Z,99.90
2019-02-10T18:44:19.628Z,99.90
2019-02-10T18:46:56.448Z,99.90
2019-02-10T18:49:33.145Z,99.90
2019-02-10T18:52:22.458Z,99.90
2019-02-10T18:55:11.072Z,99.90
2019-02-10T18:57:59.455Z,99.90
2019-02-10T19:00:38.159Z,99.90
2019-02-10T19:03:35.755Z,99.90
2019-02-10T19:06:30.004Z,99.90
2019-02-10T19:09:11.317Z,99.90
2019-02-10T19:11:59.816Z,99.90
2019-02-10T19:14:44.235Z,99.90
2019-02-10T19:17:23.036Z,99.90
2019-02-10T19:20:02.663Z,99.90
2019-02-10T19:22:41.747Z,99.90
2019-02-10T19:25:17.818Z,99.90
2019-02-10T19:27:55.480Z,99.90
2019-02-10T19:30:38.449Z,99.90
2019-02-10T19:33:24.028Z,99.90
2019-02-10T19:36:01.240Z,99.90
2019-02-10T19:38:40.088Z,99.90
2019-02-10T19:41:28.294Z,99.90
2019-02-10T19:44:28.951Z,99.90
2019-02-10T19:47:07.108Z,99.90
2019-02-10T19:49:53.646Z,99.90
2019-02-10T19:52:30.818Z,99.90
2019-02-10T19:55:12.422Z,99.90
2019-02-10T19:58:07.401Z,99.90
2019-02-10T20:01:10.540Z,99.90
2019-02-10T20:03:50.751Z,99.90
2019-02-10T20:06:35.307Z,99.90
2019-02-10T20:09:13.140Z,99.90
2019-02-10T20:11:52.991Z,99.90
2019-02-10T20:14:39.675Z,99.90
2019-02-10T20:17:29.310Z,99.90
2019-02-10T20:20:18.285Z,99.90
2019-02-10T20:23:01.441Z,99.90
2019-02-10T20:26:04.849Z,99.90
2019-02-10T20:28:42.930Z,99.90
2019-02-10T20:31:46.352Z,99.90
2019-02-10T20:34:36.056Z,99.90
2019-02-10T20:37:20.023Z,99.90
2019-02-10T20:40:02.222Z,99.90
2019-02-10T20:42:53.667Z,99.90
2019-02-10T20:45:56.763Z,99.90
2019-02-10T20:48:47.877Z,99.90
2019-02-10T20:51:36.395Z,99.90
2019-02-10T20:54:23.034Z,99.90
2019-02-10T20:57:11.470Z,99.90
2019-02-10T21:00:02.928Z,99.90
2019-02-10T21:02:54.227Z,99.90
2019-02-10T21:05:30.296Z,99.90
2019-02-10T21:08:18.858Z,99.90
2019-02-10T21:11:07.648Z,99.90
2019-02-10T21:14:13.946Z,99.90
2019-02-10T21:16:56.028Z,99.90
2019-02-10T21:19:56.813Z,99.90
2019-02-10T21:22:33.868Z,99.90
2019-02-10T21:25:13.296Z,99.90
2019-02-10T21:28:17.668Z,99.90
2019-02-10T21:31:04.265Z,99.90
2019-02-10T21:34:10.515Z,99.90
2019-02-10T21:37:10.959Z,99.90
2019-02-10T21:40:06.102Z,99.90
2019-02-10T21:42:52.837Z,99.90
2019-02-10T21:45:31.180Z,99.90
2019-02-10T21:48:05.487Z,99.90
2019-02-10T21:50:34.875Z,99.90
2019-02-10T21:53:04.093Z,99.90
2019-02-10T21:55:33.556Z,99.90
2019-02-10T21:58:03.035Z,99.90
2019-02-10T22:00:32.170Z,99.90
2019-02-10T22:03:01.513Z,99.90
2019-02-10T22:05:31.300Z,99.90
2019-02-10T22:08:00.762Z,99.90
2019-02-10T22:10:30.152Z,99.90
2019-02-10T22:12:59.851Z,99.90
2019-02-10T22:15:28.979Z,99.90
2019-02-10T22:17:58.440Z,99.90
2019-02-10T22:20:27.744Z,99.90
2019-02-10T22:22:57.149Z,99.90
2019-02-10T22:25:26.580Z,99.90
2019-02-10T22:27:55.702Z,99.90
2019-02-10T22:30:25.672Z,99.90
2019-02-10T22:32:54.957Z,99.90
2019-02-10T22:35:25.264Z,99.90
2019-02-10T22:37:54.675Z,99.90
2019-02-10T22:40:24.699Z,99.90
2019-02-10T22:42:53.820Z,99.90
2019-02-10T22:45:22.984Z,99.90
2019-02-10T22:47:52.179Z,99.90
2019-02-10T22:50:21.899Z,99.90
2019-02-10T22:52:51.591Z,99.90
2019-02-10T22:55:21.020Z,99.90
2019-02-10T22:57:50.634Z,99.90
2019-02-10T23:00:38.516Z,99.90
2019-02-10T23:03:07.724Z,99.90
2019-02-10T23:05:37.246Z,99.90
2019-02-10T23:08:06.649Z,99.90
2019-02-10T23:10:36.491Z,99.90
2019-02-10T23:13:06.164Z,99.90
2019-02-10T23:15:35.948Z,99.90
2019-02-10T23:18:05.384Z,99.90
2019-02-10T23:20:35.449Z,99.90
2019-02-10T23:23:04.849Z,99.90
2019-02-10T23:25:34.283Z,99.90
2019-02-10T23:28:03.692Z,99.90
2019-02-10T23:30:33.664Z,99.90
2019-02-10T23:33:02.859Z,99.90
2019-02-10T23:35:32.924Z,99.90
2019-02-10T23:38:02.078Z,99.90
2019-02-10T23:40:31.598Z,99.90
2019-02-10T23:43:02.340Z,99.90
2019-02-10T23:45:32.000Z,99.90
2019-02-10T23:48:01.399Z,99.90
2019-02-10T23:50:30.859Z,99.90
2019-02-10T23:53:00.260Z,99.90
2019-02-10T23:55:29.419Z,99.90
2019-02-10T23:57:58.556Z,99.90
